Time;durP1;ratioP1;P1;durP2;ratioP2;P2;SDS_P1;SDS_P2;PMS_P1;PMS_P2;Temp;Humidity;BMP_temperature;BMP_pressure;BME280_temperature;BME280_humidity;BME280_pressure;Samples;Min_cycle;Max_cycle;Signal;HPM_P1;HPM_P2
2021/01/23 00:00:34;;;;;;;14.18;7.22;;;;;;;4.06;73.68;98057.44;4957541;28;20450;-31
2021/01/23 00:03:00;;;;;;;8.57;6.55;;;;;;;4.09;73.56;98065.19;4957332;28;20055;-30
2021/01/23 00:05:25;;;;;;;8.57;6.45;;;;;;;4.05;73.38;98054.88;4957880;28;20528;-30
2021/01/23 00:07:50;;;;;;;12.40;7.93;;;;;;;4.09;73.97;98061.75;4974085;28;20039;-30
2021/01/23 00:10:16;;;;;;;9.85;7.38;;;;;;;4.03;73.14;98066.81;4957607;28;20039;-30
2021/01/23 00:12:41;;;;;;;10.98;7.30;;;;;;;4.05;73.48;98055.72;4957441;28;20507;-30
2021/01/23 00:15:09;;;;;;;11.20;7.22;;;;;;;4.05;73.66;98055.72;4957367;28;20422;-30
2021/01/23 00:17:34;;;;;;;13.02;7.50;;;;;;;4.03;73.54;98048.88;4957148;28;20086;-30
2021/01/23 00:20:02;;;;;;;11.43;8.75;;;;;;;3.99;74.06;98045.44;4957706;28;20548;-30
2021/01/23 00:22:28;;;;;;;12.00;8.13;;;;;;;4.00;73.71;98053.97;4974641;28;20039;-30
2021/01/23 00:24:56;;;;;;;11.43;7.28;;;;;;;3.97;73.53;98057.38;4974726;28;20186;-30
2021/01/23 00:27:25;;;;;;;10.70;7.35;;;;;;;3.99;73.66;98047.13;4957330;28;20042;-30
2021/01/23 00:29:50;;;;;;;12.77;8.63;;;;;;;4.00;73.68;98047.16;4957243;28;20041;-30
2021/01/23 00:32:19;;;;;;;11.60;8.30;;;;;;;3.96;74.08;98046.25;4957212;28;20043;-30
2021/01/23 00:34:47;;;;;;;12.75;8.15;;;;;;;3.91;73.55;98045.34;4974901;28;20035;-30
2021/01/23 00:37:14;;;;;;;12.40;8.25;;;;;;;3.95;74.00;98038.53;4975080;28;20043;-30
2021/01/23 00:39:40;;;;;;;13.40;8.48;;;;;;;3.91;73.61;98040.22;4957543;28;20042;-30
2021/01/23 00:42:05;;;;;;;16.20;8.75;;;;;;;3.90;73.64;98045.31;4974377;28;20565;-30
2021/01/23 00:44:31;;;;;;;11.63;8.10;;;;;;;3.93;73.84;98038.53;4956934;28;20042;-30
2021/01/23 00:46:59;;;;;;;11.13;8.20;;;;;;;3.92;73.77;98039.38;4974818;28;20074;-30
2021/01/23 00:49:25;;;;;;;14.30;9.52;;;;;;;3.91;73.86;98037.66;4974278;28;20030;-30
2021/01/23 00:51:50;;;;;;;12.30;8.30;;;;;;;3.91;74.19;98042.78;4973475;28;20047;-30
2021/01/23 00:54:16;;;;;;;13.45;8.60;;;;;;;3.94;73.68;98042.81;4978632;28;20026;-30
2021/01/23 00:56:45;;;;;;;11.23;7.97;;;;;;;3.90;73.94;98043.63;4978300;28;20074;-29
2021/01/23 00:59:10;;;;;;;17.10;9.15;;;;;;;3.91;74.28;98047.91;4961325;28;20097;-30
2021/01/23 01:01:35;;;;;;;11.07;8.13;;;;;;;3.91;73.92;98044.47;4978101;28;20043;-30
2021/01/23 01:04:01;;;;;;;16.08;9.25;;;;;;;3.89;73.70;98039.34;4977267;28;20066;-31
2021/01/23 01:06:26;;;;;;;15.52;9.63;;;;;;;3.91;73.79;98040.22;4978358;28;20114;-30
2021/01/23 01:08:52;;;;;;;10.90;8.45;;;;;;;3.89;74.21;98034.22;4977777;28;20498;-31
2021/01/23 01:11:20;;;;;;;15.77;9.88;;;;;;;3.91;73.45;98032.53;4960423;28;20117;-31
2021/01/23 01:13:45;;;;;;;12.25;9.80;;;;;;;3.92;73.91;98034.25;4978043;28;20054;-31
2021/01/23 01:16:11;;;;;;;12.05;9.05;;;;;;;3.96;74.19;98038.56;4976907;28;20078;-31
2021/01/23 01:18:36;;;;;;;12.40;9.32;;;;;;;3.94;74.10;98024.88;4977972;28;20113;-31
2021/01/23 01:21:01;;;;;;;12.18;8.55;;;;;;;3.92;73.76;98024.00;4976828;28;20479;-31
2021/01/23 01:23:27;;;;;;;11.85;8.38;;;;;;;3.95;74.03;98029.16;4977470;28;20042;-31
2021/01/23 01:25:52;;;;;;;18.48;9.90;;;;;;;3.85;73.79;98022.19;4977369;28;20105;-30
2021/01/23 01:28:18;;;;;;;12.38;8.95;;;;;;;3.88;74.17;98022.25;4977892;28;20039;-31
2021/01/23 01:30:43;;;;;;;16.42;9.68;;;;;;;3.91;74.13;98021.41;4977567;28;20042;-30
2021/01/23 01:33:09;;;;;;;12.13;9.23;;;;;;;3.92;74.13;98029.13;4976996;28;20035;-30
2021/01/23 01:35:35;;;;;;;14.98;9.50;;;;;;;3.92;74.14;98026.56;4977916;28;20035;-30
2021/01/23 01:38:01;;;;;;;12.43;9.63;;;;;;;3.93;74.42;98025.72;4976659;28;20034;-30
2021/01/23 01:40:26;;;;;;;18.02;10.07;;;;;;;3.94;74.32;98022.31;4976622;28;20125;-30
2021/01/23 01:42:52;;;;;;;14.30;9.85;;;;;;;3.92;73.75;98023.13;4960367;28;20406;-30
2021/01/23 01:45:17;;;;;;;16.58;10.00;;;;;;;3.89;74.33;98025.69;4977377;28;20043;-31
2021/01/23 01:47:43;;;;;;;16.15;10.20;;;;;;;3.89;73.97;98028.25;4960074;28;20376;-31
2021/01/23 01:50:09;;;;;;;16.60;10.90;;;;;;;3.90;74.21;98029.94;4977122;28;20505;-31
2021/01/23 01:52:35;;;;;;;12.38;10.30;;;;;;;3.90;73.92;98032.50;4976082;28;20042;-30
2021/01/23 01:55:01;;;;;;;15.95;10.38;;;;;;;3.92;74.21;98018.00;4976035;28;20406;-30
2021/01/23 01:57:27;;;;;;;13.82;9.50;;;;;;;3.88;74.12;98019.69;4976192;28;20046;-30
2021/01/23 01:59:52;;;;;;;14.68;9.35;;;;;;;3.88;74.22;98026.53;4975559;28;20046;-30
2021/01/23 02:02:55;;;;;;;14.35;10.07;;;;;;;3.86;74.26;98031.63;4959982;28;20074;-31
2021/01/23 02:05:33;;;;;;;18.77;10.90;;;;;;;3.85;74.50;98027.31;4976215;28;20034;-30
2021/01/23 02:08:14;;;;;;;15.27;10.65;;;;;;;3.86;74.47;98031.63;4975575;28;20442;-30
2021/01/23 02:11:08;;;;;;;13.75;9.20;;;;;;;3.87;74.57;98027.38;4977001;28;20129;-30
2021/01/23 02:13:52;;;;;;;13.77;10.00;;;;;;;3.85;74.94;98029.91;4977170;28;20042;-30
2021/01/23 02:16:25;;;;;;;16.67;9.73;;;;;;;3.88;74.78;98035.06;4975900;28;20049;-31
2021/01/23 02:19:05;;;;;;;12.10;9.38;;;;;;;3.86;74.30;98036.75;4975370;28;20089;-31
2021/01/23 02:21:48;;;;;;;18.77;9.65;;;;;;;3.86;74.58;98023.06;4959930;28;20081;-30
2021/01/23 02:24:22;;;;;;;13.73;10.00;;;;;;;3.84;74.98;98022.19;4959679;28;20102;-30
2021/01/23 02:27:14;;;;;;;14.13;10.90;;;;;;;3.84;74.97;98022.19;4959235;28;20041;-30
2021/01/23 02:30:13;;;;;;;12.82;9.23;;;;;;;3.83;75.29;98017.91;4975916;28;20053;-30
2021/01/23 02:32:48;;;;;;;15.77;11.30;;;;;;;3.80;74.45;98018.75;4976674;28;20505;-30
2021/01/23 02:35:18;;;;;;;15.45;10.57;;;;;;;3.83;74.94;98023.03;4959188;28;20431;-30
2021/01/23 02:37:44;;;;;;;14.63;10.05;;;;;;;3.83;74.98;98020.47;4975363;28;20133;-30
2021/01/23 02:40:11;;;;;;;15.32;10.40;;;;;;;3.84;74.63;98019.63;4976591;28;20042;-30
2021/01/23 02:42:42;;;;;;;14.25;10.10;;;;;;;3.84;74.69;98023.03;4975787;28;20486;-30
2021/01/23 02:45:13;;;;;;;13.82;10.23;;;;;;;3.86;74.90;98025.66;4959661;28;20043;-30
2021/01/23 02:47:43;;;;;;;15.55;10.80;;;;;;;3.84;74.48;98025.59;4976162;28;20035;-30
2021/01/23 02:50:10;;;;;;;15.27;10.07;;;;;;;3.87;74.18;98020.53;4976002;28;20539;-30
2021/01/23 02:52:54;;;;;;;14.60;9.98;;;;;;;3.89;74.09;98015.44;4976354;28;20093;-30
2021/01/23 02:55:23;;;;;;;14.05;9.63;;;;;;;3.89;74.73;98012.88;4958796;28;20038;-30
2021/01/23 02:57:53;;;;;;;11.63;9.00;;;;;;;3.88;74.81;98012.00;4959086;28;20081;-29
2021/01/23 03:00:20;;;;;;;14.68;10.55;;;;;;;3.89;74.19;98018.00;4975187;28;20046;-30
2021/01/23 03:02:54;;;;;;;16.55;10.27;;;;;;;3.93;74.61;98012.03;4958608;28;20130;-30
2021/01/23 03:05:22;;;;;;;;;;;;;;;3.91;74.80;98013.72;4976328;28;20031;-30
2021/01/23 03:07:52;;;;;;;16.45;11.10;;;;;;;3.88;74.81;98012.00;4974996;28;19922;-30
2021/01/23 03:10:33;;;;;;;16.38;10.75;;;;;;;3.90;74.81;98010.31;4974641;28;20039;-30
2021/01/23 03:13:03;;;;;;;13.57;9.70;;;;;;;3.92;74.52;98020.56;4942394;28;20031;-30
2021/01/23 03:15:34;;;;;;;12.55;9.07;;;;;;;3.94;74.65;98022.31;4974993;28;20042;-30
2021/01/23 03:18:00;;;;;;;17.40;10.15;;;;;;;3.92;74.77;98016.31;4958885;28;20031;-30
2021/01/23 03:20:29;;;;;;;14.15;10.32;;;;;;;3.93;75.08;98012.91;4974619;28;20066;-30
2021/01/23 03:22:58;;;;;;;16.35;11.07;;;;;;;3.90;74.78;98010.31;4974842;28;20069;-30
2021/01/23 03:25:27;;;;;;;16.15;11.32;;;;;;;3.92;75.00;98006.06;4974573;28;20042;-30
2021/01/23 03:27:54;;;;;;;15.13;10.57;;;;;;;3.90;75.01;98006.88;4975894;28;20038;-30
2021/01/23 03:30:23;;;;;;;15.65;11.35;;;;;;;3.95;74.65;98012.91;4975910;28;20062;-30
2021/01/23 03:32:49;;;;;;;19.10;10.32;;;;;;;3.94;74.40;98008.63;4975549;28;20038;-30
2021/01/23 03:35:16;;;;;;;17.85;10.82;;;;;;;3.94;74.95;98022.31;4975344;28;20089;-30
2021/01/23 03:37:41;;;;;;;12.55;9.73;;;;;;;3.93;74.74;98019.72;4974128;28;20031;-29
2021/01/23 03:40:08;;;;;;;14.18;10.20;;;;;;;3.92;75.32;98018.00;4974174;28;20035;-30
2021/01/23 03:42:34;;;;;;;14.77;10.70;;;;;;;3.92;74.51;98018.00;4975244;28;20565;-30
2021/01/23 03:44:59;;;;;;;13.52;9.75;;;;;;;3.94;75.35;98017.19;4975334;28;20038;-30
2021/01/23 03:47:25;;;;;;;13.13;10.15;;;;;;;3.95;74.49;98003.53;4975722;28;20395;-30
2021/01/23 03:49:50;;;;;;;14.15;9.65;;;;;;;3.97;75.12;97995.84;4974063;28;20085;-31
2021/01/23 03:52:18;;;;;;;15.85;10.60;;;;;;;3.98;74.80;97997.56;4974756;28;20039;-30
2021/01/23 03:54:44;;;;;;;17.02;10.35;;;;;;;3.97;75.05;97990.72;4974627;28;20117;-30
2021/01/23 03:57:09;;;;;;;14.98;9.98;;;;;;;3.99;74.90;98006.09;4974205;28;20114;-30
2021/01/23 03:59:35;;;;;;;14.10;10.07;;;;;;;3.95;75.07;98000.97;4957760;28;20046;-30
2021/01/23 04:02:01;;;;;;;13.95;10.85;;;;;;;4.00;74.67;97993.31;4958141;28;20189;-29
2021/01/23 04:04:27;;;;;;;15.80;11.25;;;;;;;4.02;74.94;97993.31;4975148;28;20121;-30
2021/01/23 04:06:53;;;;;;;19.70;11.48;;;;;;;4.02;75.10;97985.63;4957923;28;20500;-30
2021/01/23 04:09:18;;;;;;;15.25;10.70;;;;;;;4.01;75.13;97984.78;4974794;28;20126;-30
2021/01/23 04:11:44;;;;;;;14.65;9.90;;;;;;;4.02;75.31;97981.38;4973490;28;20166;-30
2021/01/23 04:14:10;;;;;;;13.18;10.25;;;;;;;4.01;75.20;97986.47;4974859;28;20039;-30
2021/01/23 04:16:36;;;;;;;15.32;10.60;;;;;;;4.01;74.72;97982.22;4974690;28;20113;-30
2021/01/23 04:19:02;;;;;;;11.63;8.85;;;;;;;3.99;75.01;97981.34;4975208;28;20043;-30
2021/01/23 04:21:28;;;;;;;12.07;9.30;;;;;;;3.98;75.12;97979.63;4974938;28;20045;-30
2021/01/23 04:23:53;;;;;;;14.18;9.75;;;;;;;4.01;75.68;97979.66;4957211;28;20114;-30
2021/01/23 04:26:19;;;;;;;15.65;10.15;;;;;;;3.99;74.85;97993.28;4973349;28;20043;-30
2021/01/23 04:28:44;;;;;;;13.13;9.65;;;;;;;3.98;75.02;97984.75;4974810;28;20035;-30
2021/01/23 04:31:10;;;;;;;13.32;10.25;;;;;;;3.99;75.25;97983.03;4974641;28;20042;-31
2021/01/23 04:33:35;;;;;;;15.52;10.57;;;;;;;4.01;75.25;97978.78;4974278;28;20536;-30
2021/01/23 04:36:06;;;;;;;15.77;10.40;;;;;;;4.00;75.63;97982.19;4973341;28;20395;-30
2021/01/23 04:38:33;;;;;;;12.88;9.88;;;;;;;4.00;75.17;97977.94;4974667;28;20030;-30
2021/01/23 04:40:59;;;;;;;16.63;10.65;;;;;;;3.98;75.16;97971.94;4974738;28;20122;-30
2021/01/23 04:43:27;;;;;;;12.45;10.50;;;;;;;4.00;75.16;97975.38;4974283;28;20035;-30
2021/01/23 04:45:53;;;;;;;12.73;9.75;;;;;;;4.00;75.39;97979.63;4974585;28;20034;-29
2021/01/23 04:48:19;;;;;;;13.60;9.93;;;;;;;3.99;75.76;97965.97;4973622;28;20061;-30
2021/01/23 04:50:46;;;;;;;14.18;10.93;;;;;;;3.99;75.45;97967.66;4974357;28;20126;-30
2021/01/23 04:53:13;;;;;;;14.85;9.23;;;;;;;3.98;75.38;97959.13;4974079;28;20066;-30
2021/01/23 04:55:46;;;;;;;13.95;10.07;;;;;;;3.96;75.47;97966.81;4973322;28;20043;-30
2021/01/23 04:58:11;;;;;;;15.02;10.02;;;;;;;4.00;75.26;97964.25;4973205;28;20113;-30
2021/01/23 05:00:37;;;;;;;13.68;10.07;;;;;;;3.98;75.53;97961.69;4957107;28;20084;-30
2021/01/23 05:03:06;;;;;;;13.00;10.00;;;;;;;3.95;75.48;97964.22;4956761;28;20059;-30
2021/01/23 05:05:33;;;;;;;14.57;10.50;;;;;;;4.00;74.89;97969.38;4973157;28;20391;-30
2021/01/23 05:08:33;;;;;;;13.88;10.95;;;;;;;4.00;75.78;97967.69;4973821;28;20035;-30
2021/01/23 05:11:02;;;;;;;16.10;10.02;;;;;;;4.00;75.71;97970.25;4974076;28;20042;-30
2021/01/23 05:13:27;;;;;;;14.25;10.50;;;;;;;3.98;75.15;97959.13;4974185;28;20093;-29
2021/01/23 05:15:55;;;;;;;18.35;12.43;;;;;;;3.99;74.99;97970.22;4974370;28;20043;-30
2021/01/23 05:18:21;;;;;;;15.23;11.48;;;;;;;3.99;75.42;97970.22;4956907;28;20126;-30
2021/01/23 05:20:51;;;;;;;15.55;10.95;;;;;;;3.99;75.62;97973.66;4973588;28;20125;-30
2021/01/23 05:23:20;;;;;;;12.75;11.02;;;;;;;4.01;75.19;97976.22;4957237;28;20101;-30
2021/01/23 05:25:51;;;;;;;17.30;11.02;;;;;;;4.00;75.36;97977.94;4973028;28;20039;-30
2021/01/23 05:28:38;;;;;;;15.02;10.07;;;;;;;3.99;75.52;97972.78;4973999;28;20043;-30
2021/01/23 05:31:14;;;;;;;17.08;10.55;;;;;;;3.97;75.68;97973.63;4974058;28;20035;-30
2021/01/23 05:33:42;;;;;;;15.90;11.27;;;;;;;4.00;75.56;97966.81;4974193;28;20467;-30
2021/01/23 05:36:10;;;;;;;17.52;11.20;;;;;;;3.98;76.17;97964.25;4973854;28;20027;-30
2021/01/23 05:38:41;;;;;;;14.18;10.82;;;;;;;4.02;75.84;97968.56;4973058;28;20106;-30
2021/01/23 05:41:08;;;;;;;17.02;10.95;;;;;;;4.02;75.85;97958.31;4976270;28;20062;-30
2021/01/23 05:43:47;;;;;;;15.15;10.57;;;;;;;4.02;75.87;97958.31;4960245;28;20042;-31
2021/01/23 05:46:27;;;;;;;20.58;11.40;;;;;;;3.99;76.18;97955.72;4960727;28;20045;-30
2021/01/23 05:48:54;;;;;;;14.43;11.00;;;;;;;4.02;74.90;97954.88;4976138;28;20525;-30
2021/01/23 05:51:21;;;;;;;13.18;10.45;;;;;;;4.04;75.08;97955.75;4977533;28;20062;-30
2021/01/23 05:53:49;;;;;;;14.63;10.90;;;;;;;4.05;75.12;97960.88;4976876;28;20047;-30
2021/01/23 05:56:17;;;;;;;16.27;10.48;;;;;;;4.05;75.22;97953.19;4977275;28;20046;-30
2021/01/23 05:58:46;;;;;;;17.95;10.93;;;;;;;4.02;75.46;97953.19;4960174;28;20043;-30
2021/01/23 06:01:20;;;;;;;11.95;9.73;;;;;;;3.99;75.66;97957.41;4975522;28;20545;-30
2021/01/23 06:03:51;;;;;;;15.30;11.33;;;;;;;4.01;75.22;97961.72;4959973;28;20030;-30
2021/01/23 06:06:16;;;;;;;11.55;9.00;;;;;;;3.98;75.52;97961.69;4976690;28;20294;-30
2021/01/23 06:08:43;;;;;;;13.48;9.98;;;;;;;3.99;75.34;97968.53;4977025;28;20541;-30
2021/01/23 06:11:18;;;;;;;15.43;9.70;;;;;;;3.97;75.73;97960.81;4959450;28;20093;-30
2021/01/23 06:13:50;;;;;;;11.82;9.00;;;;;;;4.01;75.45;97963.41;4977304;28;20494;-29
2021/01/23 06:16:31;;;;;;;14.98;9.75;;;;;;;3.97;75.73;97960.81;4977024;28;20049;-31
2021/01/23 06:18:57;;;;;;;12.90;9.40;;;;;;;3.94;75.15;97959.94;4976402;28;20093;-30
2021/01/23 06:21:42;;;;;;;12.98;9.20;;;;;;;3.96;75.93;97964.25;4975752;28;20038;-30
2021/01/23 06:24:09;;;;;;;14.88;8.80;;;;;;;3.97;75.39;97954.84;4975501;28;20042;-30
2021/01/23 06:26:54;;;;;;;12.40;8.82;;;;;;;3.93;75.47;97959.09;4959248;28;20043;-29
2021/01/23 06:29:37;;;;;;;13.63;9.85;;;;;;;3.92;75.53;97959.06;4975062;28;20039;-30
2021/01/23 06:32:12;;;;;;;16.55;9.00;;;;;;;3.93;76.03;97964.22;4976612;28;20038;-30
2021/01/23 06:34:52;;;;;;;14.18;9.73;;;;;;;3.93;75.97;97973.59;4959831;28;20031;-30
2021/01/23 06:37:28;;;;;;;16.20;9.23;;;;;;;3.94;75.37;97960.81;4959464;28;20035;-30
2021/01/23 06:40:16;;;;;;;14.95;8.90;;;;;;;3.91;75.44;97970.16;4976100;28;20609;-30
2021/01/23 06:42:47;;;;;;;11.52;8.95;;;;;;;3.92;75.33;97962.50;4976677;28;20039;-30
2021/01/23 06:45:20;;;;;;;14.35;7.55;;;;;;;3.91;75.54;97975.28;4959157;28;20041;-31
2021/01/23 06:47:48;;;;;;;18.67;8.18;;;;;;;3.90;75.22;97964.16;4976304;28;20038;-30
2021/01/23 06:50:27;;;;;;;10.52;8.77;;;;;;;3.85;75.35;97958.13;4974517;28;20030;-30
2021/01/23 06:52:57;;;;;;;12.77;8.00;;;;;;;3.85;75.42;97963.25;4976523;28;20035;-30
2021/01/23 06:55:45;;;;;;;11.95;7.68;;;;;;;3.86;75.46;97964.97;4975173;28;20037;-30
2021/01/23 06:58:15;;;;;;;12.95;7.63;;;;;;;3.86;75.74;97969.25;4976729;28;20122;-30
2021/01/23 07:00:41;;;;;;;14.40;8.27;;;;;;;3.88;74.87;97970.13;4976079;28;20034;-30
2021/01/23 07:03:12;;;;;;;10.57;8.38;;;;;;;3.89;74.90;97966.72;4958782;28;20055;-30
2021/01/23 07:05:51;;;;;;;10.48;7.75;;;;;;;3.88;74.62;97967.56;4958858;28;20403;-30
2021/01/23 07:08:30;;;;;;;13.65;7.60;;;;;;;3.87;75.48;97970.97;4976140;28;20046;-30
2021/01/23 07:11:25;;;;;;;14.18;8.20;;;;;;;3.82;75.46;97973.47;4975797;28;20077;-30
2021/01/23 07:14:02;;;;;;;;;;;;;;;3.80;75.61;97967.50;4963543;28;20082;-31
2021/01/23 07:16:29;;;;;;;10.40;7.60;;;;;;;3.85;75.17;97976.06;4975858;28;19914;-31
2021/01/23 07:18:57;;;;;;;11.48;7.75;;;;;;;3.86;75.26;97976.94;4974224;28;20039;-31
2021/01/23 07:21:25;;;;;;;13.60;8.52;;;;;;;3.84;75.10;97978.63;4958361;28;20129;-30
2021/01/23 07:23:55;;;;;;;10.32;7.32;;;;;;;3.81;75.23;97982.88;4975456;28;20101;-30
2021/01/23 07:26:21;;;;;;;13.02;7.90;;;;;;;3.77;75.46;97982.84;4974737;28;20041;-31
2021/01/23 07:28:51;;;;;;;12.10;7.75;;;;;;;3.80;74.98;97977.75;4942528;28;20073;-31
2021/01/23 07:31:30;;;;;;;14.35;7.85;;;;;;;3.80;75.89;97981.16;4974335;28;20093;-30
2021/01/23 07:34:01;;;;;;;14.10;6.80;;;;;;;3.79;75.35;97981.16;4975395;28;20038;-30
2021/01/23 07:36:40;;;;;;;9.98;7.20;;;;;;;3.77;75.25;97986.25;4958174;28;20038;-30
2021/01/23 07:39:26;;;;;;;10.65;7.45;;;;;;;3.76;75.77;97978.56;4974550;28;20043;-30
2021/01/23 07:41:55;;;;;;;14.63;7.40;;;;;;;3.76;75.62;97973.44;4973610;28;20469;-29
2021/01/23 07:44:27;;;;;;;13.52;7.20;;;;;;;3.74;75.53;97972.56;4970968;28;20082;-30
2021/01/23 07:46:53;;;;;;;13.05;7.45;;;;;;;3.74;74.72;97965.72;4974190;28;20042;-30
2021/01/23 07:49:26;;;;;;;11.73;7.05;;;;;;;3.75;74.68;97972.56;4974067;28;20106;-30
2021/01/23 07:52:07;;;;;;;9.93;6.35;;;;;;;3.71;75.00;97968.28;4975071;28;20035;-30
2021/01/23 07:54:32;;;;;;;6.43;5.35;;;;;;;3.75;74.68;97953.78;4975594;28;20394;-30
2021/01/23 07:56:58;;;;;;;12.82;6.85;;;;;;;3.76;74.94;97961.47;4974050;28;20038;-30
2021/01/23 07:59:45;;;;;;;12.52;6.93;;;;;;;3.77;75.12;97947.81;4975060;28;20387;-30
2021/01/23 08:02:11;;;;;;;11.73;5.93;;;;;;;3.77;74.83;97949.53;4974053;28;20051;-30
2021/01/23 08:04:38;;;;;;;13.57;6.53;;;;;;;3.73;75.24;97947.78;4975053;28;20089;-30
2021/01/23 08:07:31;;;;;;;12.75;5.65;;;;;;;3.75;75.40;97953.78;4957709;28;20559;-30
2021/01/23 08:10:07;;;;;;;12.55;6.25;;;;;;;3.74;74.67;97944.38;4957645;28;20092;-30
2021/01/23 08:12:34;;;;;;;11.90;6.22;;;;;;;3.73;74.80;97955.47;4974940;28;20486;-30
2021/01/23 08:15:00;;;;;;;11.98;5.75;;;;;;;3.72;75.13;97949.50;4975183;28;20042;-30
2021/01/23 08:17:38;;;;;;;10.85;5.80;;;;;;;3.73;74.97;97945.22;4973772;28;20097;-30
2021/01/23 08:20:06;;;;;;;15.63;5.70;;;;;;;3.69;74.64;97943.44;4974404;28;20034;-30
2021/01/23 08:22:31;;;;;;;15.60;5.80;;;;;;;3.74;74.97;97952.06;4957287;28;20121;-30
2021/01/23 08:25:29;;;;;;;10.57;5.63;;;;;;;3.74;74.61;97944.38;4973659;28;20035;-30
2021/01/23 08:27:58;;;;;;;11.18;5.13;;;;;;;3.74;75.24;97940.09;4957925;28;20117;-29
2021/01/23 08:30:25;;;;;;;9.52;4.65;;;;;;;3.75;75.21;97948.66;4974600;28;20046;-30
2021/01/23 08:32:51;;;;;;;14.88;5.32;;;;;;;3.75;75.01;97949.50;4973284;28;20034;-30
2021/01/23 08:35:17;;;;;;;10.18;4.90;;;;;;;3.77;74.46;97947.81;4973407;28;20178;-30
2021/01/23 08:37:44;;;;;;;12.82;5.63;;;;;;;3.76;75.24;97950.38;4957275;28;20043;-29
2021/01/23 08:40:10;;;;;;;7.63;4.80;;;;;;;3.70;75.31;97940.94;4974929;28;20058;-29
2021/01/23 08:42:36;;;;;;;7.85;4.57;;;;;;;3.77;74.86;97939.28;4974516;28;20399;-30
2021/01/23 08:45:03;;;;;;;10.65;5.20;;;;;;;3.75;74.95;97939.25;4974478;28;20487;-30
2021/01/23 08:47:28;;;;;;;12.50;4.47;;;;;;;3.74;75.11;97939.25;4957206;28;20046;-30
2021/01/23 08:49:54;;;;;;;13.73;4.90;;;;;;;3.75;74.60;97936.69;4957707;28;20121;-30
2021/01/23 08:52:20;;;;;;;11.98;5.10;;;;;;;3.78;74.57;97938.44;4957733;28;20062;-30
2021/01/23 08:54:45;;;;;;;10.95;4.90;;;;;;;3.79;74.91;97937.59;4974391;28;20502;-30
2021/01/23 08:57:11;;;;;;;9.88;5.70;;;;;;;3.79;74.81;97937.59;4973239;28;20058;-30
2021/01/23 08:59:36;;;;;;;11.25;5.35;;;;;;;3.80;74.85;97939.31;4973993;28;20049;-30
2021/01/23 09:02:01;;;;;;;10.88;5.00;;;;;;;3.81;74.65;97939.31;4956778;28;20059;-31
2021/01/23 09:04:27;;;;;;;11.88;4.78;;;;;;;3.81;75.10;97929.06;4974448;28;20041;-31
2021/01/23 09:06:52;;;;;;;12.68;5.40;;;;;;;3.84;74.83;97929.94;4957056;28;20035;-31
2021/01/23 09:09:18;;;;;;;10.68;5.35;;;;;;;3.83;74.69;97923.94;4957023;28;20130;-30
2021/01/23 09:11:43;;;;;;;14.55;5.65;;;;;;;3.83;74.56;97915.41;4974355;28;20495;-30
2021/01/23 09:14:09;;;;;;;11.95;4.80;;;;;;;3.83;75.00;97905.16;4975058;28;20031;-30
2021/01/23 09:16:34;;;;;;;13.48;4.90;;;;;;;3.82;75.30;97911.97;4960618;28;20035;-31
2021/01/23 09:19:00;;;;;;;12.43;5.57;;;;;;;3.84;74.45;97910.28;4977948;28;20142;-31
2021/01/23 09:21:27;;;;;;;5.70;4.15;;;;;;;3.81;74.86;97910.28;4978207;28;20039;-31
2021/01/23 09:23:52;;;;;;;8.15;4.43;;;;;;;3.79;75.02;97900.00;4960881;28;20039;-30
2021/01/23 09:26:17;;;;;;;12.30;4.40;;;;;;;3.83;74.70;97900.88;4976302;28;20499;-30
2021/01/23 09:28:43;;;;;;;10.80;4.10;;;;;;;3.81;74.92;97900.03;4977905;28;20494;-30
2021/01/23 09:31:09;;;;;;;7.95;3.85;;;;;;;3.82;74.91;97896.59;4976096;28;20034;-30
2021/01/23 09:33:34;;;;;;;10.70;4.22;;;;;;;3.86;75.25;97894.94;4960243;28;20544;-31
2021/01/23 09:36:00;;;;;;;10.13;4.90;;;;;;;3.85;74.74;97895.78;4976349;28;20570;-30
2021/01/23 09:38:26;;;;;;;9.65;3.72;;;;;;;3.85;74.65;97893.22;4977540;28;20069;-30
2021/01/23 09:40:52;;;;;;;6.60;3.55;;;;;;;3.87;74.74;97891.53;4960397;28;20039;-31
2021/01/23 09:43:17;;;;;;;13.07;4.75;;;;;;;3.85;74.30;97895.78;4977538;28;20035;-30
2021/01/23 09:45:43;;;;;;;11.52;3.90;;;;;;;3.88;74.69;97896.66;4960303;28;20041;-30
2021/01/23 09:48:08;;;;;;;7.32;3.65;;;;;;;3.85;74.85;97896.63;4977360;28;20458;-31
2021/01/23 09:50:34;;;;;;;7.07;3.42;;;;;;;3.85;74.97;97903.47;4975997;28;20038;-30
2021/01/23 09:52:59;;;;;;;11.60;3.83;;;;;;;3.86;74.49;97913.72;4977088;28;20039;-30
2021/01/23 09:55:25;;;;;;;7.32;3.90;;;;;;;3.88;74.48;97904.34;4960133;28;20035;-30
2021/01/23 09:57:54;;;;;;;10.90;3.50;;;;;;;3.87;74.14;97914.59;4976109;28;20035;-30
2021/01/23 10:00:22;;;;;;;7.65;3.08;;;;;;;3.87;74.37;97910.31;4977461;28;20489;-30
2021/01/23 10:02:47;;;;;;;6.65;3.45;;;;;;;3.89;74.80;97915.47;4976828;28;20056;-30
2021/01/23 10:05:14;;;;;;;8.98;3.40;;;;;;;3.87;74.64;97915.44;4959971;28;20461;-30
2021/01/23 10:07:42;;;;;;;6.80;3.42;;;;;;;3.85;73.88;97919.69;4976760;28;20038;-30
2021/01/23 10:10:09;;;;;;;13.23;3.70;;;;;;;3.84;74.56;97917.97;4976057;28;20041;-30
2021/01/23 10:12:35;;;;;;;6.13;3.20;;;;;;;3.86;74.49;97925.69;4959607;28;20045;-30
2021/01/23 10:15:06;;;;;;;6.47;3.22;;;;;;;3.86;74.31;97916.28;4976577;28;20039;-30
2021/01/23 10:17:31;;;;;;;12.23;3.58;;;;;;;3.85;74.40;97914.56;4976890;28;20043;-30
2021/01/23 10:20:00;;;;;;;13.48;3.63;;;;;;;3.86;74.77;97911.16;4976949;28;20035;-30
2021/01/23 10:22:25;;;;;;;8.45;3.70;;;;;;;3.88;74.95;97913.75;4977250;28;20038;-30
2021/01/23 10:24:51;;;;;;;7.70;3.65;;;;;;;3.87;74.45;97915.44;4976575;28;20089;-30
2021/01/23 10:27:16;;;;;;;6.53;3.03;;;;;;;3.89;74.86;97900.94;4975837;28;20039;-30
2021/01/23 10:29:43;;;;;;;10.93;3.15;;;;;;;3.89;74.51;97900.94;4976235;28;20038;-30
2021/01/23 10:32:08;;;;;;;6.05;3.00;;;;;;;3.91;74.80;97893.25;4959302;28;20042;-30
2021/01/23 10:34:34;;;;;;;7.22;2.60;;;;;;;3.92;74.62;97884.72;4977204;28;20034;-30
2021/01/23 10:36:59;;;;;;;8.52;3.13;;;;;;;3.90;74.52;97881.28;4959324;28;20058;-30
2021/01/23 10:39:33;;;;;;;9.95;4.45;;;;;;;3.91;74.22;97876.19;4959296;28;20070;-29
2021/01/23 10:42:01;;;;;;;8.18;3.25;;;;;;;3.91;74.66;97871.06;4974978;28;20438;-30
2021/01/23 10:44:27;;;;;;;9.20;3.58;;;;;;;3.93;74.36;97873.63;4976244;28;20038;-30
2021/01/23 10:46:57;;;;;;;8.07;3.60;;;;;;;3.93;74.37;97866.81;4975029;28;20046;-30
2021/01/23 10:49:33;;;;;;;10.40;3.77;;;;;;;3.92;74.49;97871.91;4975445;28;20034;-30
2021/01/23 10:51:59;;;;;;;6.87;3.27;;;;;;;3.91;74.00;97855.69;4976591;28;20031;-29
2021/01/23 10:54:26;;;;;;;6.28;2.75;;;;;;;3.95;74.46;97861.69;4976221;28;20769;-30
2021/01/23 10:56:51;;;;;;;11.05;3.08;;;;;;;3.96;74.46;97856.59;4974297;28;20070;-30
2021/01/23 10:59:16;;;;;;;11.95;3.67;;;;;;;3.95;74.58;97854.88;4976139;28;20077;-30
2021/01/23 11:01:42;;;;;;;10.00;2.95;;;;;;;3.96;74.42;97851.47;4958639;28;20078;-30
2021/01/23 11:04:07;;;;;;;5.47;2.92;;;;;;;3.98;74.77;97854.03;4975764;28;20042;-30
2021/01/23 11:06:33;;;;;;;5.20;2.63;;;;;;;3.99;74.39;97848.06;4958723;28;20035;-31
2021/01/23 11:08:58;;;;;;;8.20;2.75;;;;;;;3.99;74.81;97847.19;4958797;28;20034;-30
2021/01/23 11:11:24;;;;;;;6.32;3.20;;;;;;;3.97;74.65;97848.03;4975728;28;20046;-30
2021/01/23 11:13:49;;;;;;;5.65;2.75;;;;;;;3.98;74.54;97851.47;4958719;28;20364;-30
2021/01/23 11:16:15;;;;;;;7.82;2.40;;;;;;;3.99;74.84;97849.75;4958601;28;20126;-30
2021/01/23 11:18:41;;;;;;;4.88;2.17;;;;;;;4.01;74.65;97848.06;4958593;28;20046;-30
2021/01/23 11:21:06;;;;;;;5.57;2.55;;;;;;;4.00;74.83;97847.22;4958495;28;20050;-30
2021/01/23 11:23:32;;;;;;;5.20;2.63;;;;;;;4.01;74.32;97846.38;4957238;28;20478;-30
2021/01/23 11:25:57;;;;;;;5.63;2.40;;;;;;;4.01;74.49;97838.66;4974681;28;20046;-30
2021/01/23 11:28:23;;;;;;;6.22;3.03;;;;;;;4.02;74.91;97836.94;4957448;28;20042;-31
2021/01/23 11:30:49;;;;;;;7.40;2.55;;;;;;;4.00;74.58;97842.09;4975390;28;20035;-30
2021/01/23 11:33:16;;;;;;;9.63;2.80;;;;;;;4.02;74.27;97839.50;4975505;28;20046;-30
2021/01/23 11:35:41;;;;;;;10.20;3.10;;;;;;;4.01;74.86;97833.53;4975240;28;20031;-30
2021/01/23 11:38:07;;;;;;;7.63;2.80;;;;;;;4.03;74.54;97829.28;4974469;28;20046;-29
2021/01/23 11:40:35;;;;;;;8.43;3.55;;;;;;;4.04;75.19;97823.31;4974222;28;20106;-29
2021/01/23 11:43:00;;;;;;;8.20;2.88;;;;;;;4.06;74.79;97824.16;4975432;28;20042;-30